Time;durP1;ratioP1;P1;durP2;ratioP2;P2;SDS_P1;SDS_P2;PMS_P1;PMS_P2;Temp;Humidity;BMP_temperature;BMP_pressure;BME280_temperature;BME280_humidity;BME280_pressure;Samples;Min_cycle;Max_cycle;Signal;HPM_P1;HPM_P2
2021/12/23 00:01:59;;;;;;;;;27.75;23.50;;;;;12.76;43.68;99221.97;6106327;22;103957;-59
2021/12/23 00:04:26;;;;;;;;;26.50;23.75;;;;;12.77;43.35;99228.25;6121738;22;102334;-59
2021/12/23 00:06:53;;;;;;;;;29.25;25.75;;;;;12.76;43.42;99218.41;6068848;22;102710;-58
2021/12/23 00:09:23;;;;;;;;;33.25;24.00;;;;;12.74;43.65;99215.09;6137724;22;102428;-59
2021/12/23 00:11:50;;;;;;;;;27.25;24.75;;;;;12.73;43.37;99218.84;6109858;22;103981;-59
2021/12/23 00:14:17;;;;;;;;;26.25;21.75;;;;;12.72;44.37;99225.28;6120008;22;102388;-59
2021/12/23 00:16:46;;;;;;;;;25.00;21.25;;;;;12.72;44.10;99217.16;6132852;22;102320;-58
2021/12/23 00:19:36;;;;;;;;;28.75;22.00;;;;;12.71;43.44;99210.03;6106241;22;108327;-59
2021/12/23 00:24:50;;;;;;;;;27.75;24.50;;;;;12.70;44.13;99214.63;6094175;22;102401;-58
2021/12/23 00:27:17;;;;;;;;;22.25;20.25;;;;;12.65;44.00;99206.28;6008426;22;102164;-59
2021/12/23 00:29:44;;;;;;;;;26.25;22.75;;;;;12.64;44.44;99203.75;6050290;22;102462;-59
2021/12/23 00:32:11;;;;;;;;;24.25;22.00;;;;;12.62;44.43;99205.81;6126884;22;108650;-58
2021/12/23 00:34:38;;;;;;;;;24.25;21.50;;;;;12.58;44.29;99194.53;6124793;22;102573;-58
2021/12/23 00:37:09;;;;;;;;;30.00;24.00;;;;;12.60;44.44;99199.75;6067935;22;103796;-58
2021/12/23 00:39:36;;;;;;;;;28.75;24.75;;;;;12.60;44.24;99210.63;6136017;22;102043;-58
2021/12/23 00:42:07;;;;;;;;;22.25;20.25;;;;;12.60;43.89;99205.19;6099215;22;104047;-58
2021/12/23 00:44:35;;;;;;;;;25.75;21.75;;;;;12.60;44.45;99191.63;6105537;22;102249;-58
2021/12/23 00:47:03;;;;;;;;;30.00;26.00;;;;;12.58;44.13;99196.41;6088809;22;104237;-58
2021/12/23 00:49:30;;;;;;;;;33.00;24.50;;;;;12.55;43.54;99189.50;6108741;22;103760;-58
2021/12/23 00:52:02;;;;;;;;;25.75;23.50;;;;;12.53;43.98;99197.84;6093854;22;104074;-58
2021/12/23 00:54:42;;;;;;;;;26.25;23.75;;;;;12.53;43.92;99195.13;6046760;22;102561;-60
2021/12/23 00:57:13;;;;;;;;;27.00;23.50;;;;;12.51;44.30;99194.50;6024040;22;102631;-59
2021/12/23 00:59:40;;;;;;;;;22.25;21.00;;;;;12.51;44.20;99194.50;6091199;22;104364;-58
2021/12/23 01:02:09;;;;;;;;;26.00;23.75;;;;;12.50;44.10;99190.09;5997197;22;103986;-59
2021/12/23 01:04:37;;;;;;;;;20.75;19.50;;;;;12.50;43.54;99190.09;5780928;22;102688;-58
2021/12/23 01:07:04;;;;;;;;;27.75;23.75;;;;;12.50;43.65;99187.41;5777627;22;102588;-58
2021/12/23 01:09:31;;;;;;;;;29.75;23.25;;;;;12.49;43.76;99180.28;5925720;22;102462;-58
2021/12/23 01:11:59;;;;;;;;;25.25;23.25;;;;;12.48;43.84;99178.59;6065437;22;108945;-58
2021/12/23 01:14:29;;;;;;;;;24.00;23.00;;;;;12.47;44.10;99187.78;6075788;22;103855;-58
2021/12/23 01:19:24;;;;;;;;;22.25;19.50;;;;;12.45;43.74;99178.16;6080598;22;102439;-59
2021/12/23 01:21:51;;;;;;;;;30.50;23.50;;;;;12.44;43.93;99180.03;6060796;22;104145;-58
2021/12/23 01:24:18;;;;;;;;;28.75;23.75;;;;;12.42;43.74;99171.28;5957203;22;102880;-59
2021/12/23 01:26:46;;;;;;;;;22.75;20.25;;;;;12.43;43.56;99175.66;6100043;22;102377;-58
2021/12/23 01:29:13;;;;;;;;;26.00;23.50;;;;;12.44;44.40;99171.91;6133845;22;102386;-58
2021/12/23 01:31:42;;;;;;;;;25.25;22.25;;;;;12.42;43.62;99160.44;6086570;22;103919;-58
2021/12/23 01:34:09;;;;;;;;;23.75;22.75;;;;;12.42;43.80;99168.56;5991455;22;104936;-58
2021/12/23 01:36:36;;;;;;;;;27.50;23.50;;;;;12.44;44.30;99160.22;6092536;22;102566;-58
2021/12/23 01:39:03;;;;;;;;;25.75;22.50;;;;;12.42;44.50;99160.44;6095424;22;102670;-58
2021/12/23 01:41:31;;;;;;;;;29.00;25.75;;;;;12.42;43.47;99152.28;6019060;22;104142;-58
2021/12/23 01:43:58;;;;;;;;;23.00;20.00;;;;;12.42;43.76;99152.28;5980984;22;102480;-59
2021/12/23 01:46:25;;;;;;;;;29.25;24.00;;;;;12.43;43.48;99137.69;6093571;22;102747;-58
2021/12/23 01:48:52;;;;;;;;;24.50;23.50;;;;;12.40;43.94;99143.50;6078864;22;102552;-59
2021/12/23 01:51:19;;;;;;;;;27.00;22.25;;;;;12.42;44.20;99135.19;6118966;22;103974;-58
2021/12/23 01:53:47;;;;;;;;;23.50;21.50;;;;;12.40;44.01;99127.25;6059381;22;102324;-58
2021/12/23 01:56:14;;;;;;;;;27.00;22.25;;;;;12.39;43.52;99136.41;5987385;22;102208;-58
2021/12/23 01:58:41;;;;;;;;;28.25;25.50;;;;;12.39;43.41;99130.97;6066389;22;104817;-58
2021/12/23 02:01:08;;;;;;;;;24.75;23.50;;;;;12.38;43.69;99129.28;6082907;22;104214;-58
2021/12/23 02:03:37;;;;;;;;;30.25;24.00;;;;;12.37;43.59;99129.50;5801675;22;107791;-59
2021/12/23 02:06:04;;;;;;;;;27.75;22.50;;;;;12.34;43.64;99122.59;5718026;22;103673;-58
2021/12/23 02:08:34;;;;;;;;;25.25;22.50;;;;;12.32;43.82;99119.25;5806191;22;102140;-58
2021/12/23 02:11:02;;;;;;;;;23.75;23.00;;;;;12.31;43.77;99117.59;5768891;22;103863;-58
2021/12/23 02:13:30;;;;;;;;;24.25;20.00;;;;;12.30;44.12;99112.34;5810969;22;102566;-59
2021/12/23 02:15:57;;;;;;;;;25.50;22.25;;;;;12.29;44.32;99106.09;6047376;22;104149;-58
2021/12/23 02:18:25;;;;;;;;;23.25;22.25;;;;;12.30;44.40;99105.06;5999281;22;104571;-58
2021/12/23 02:20:53;;;;;;;;;22.25;19.75;;;;;12.28;43.57;99107.16;6031739;22;104385;-59
2021/12/23 02:23:20;;;;;;;;;27.75;24.75;;;;;12.28;44.22;99106.31;5981368;22;103782;-58
2021/12/23 02:25:48;;;;;;;;;20.25;19.25;;;;;12.26;44.04;99100.22;5996976;22;104272;-58
2021/12/23 02:28:19;;;;;;;;;28.25;21.75;;;;;12.26;44.24;99098.38;6012034;22;102437;-58
2021/12/23 02:30:46;;;;;;;;;25.00;21.00;;;;;12.24;44.09;99099.63;5954008;23;104052;-58
2021/12/23 02:33:13;;;;;;;;;17.50;15.50;;;;;12.22;43.82;99091.66;6011457;22;104038;-58
2021/12/23 02:35:40;;;;;;;;;26.25;23.25;;;;;12.23;44.23;99092.50;6044726;22;102358;-58
2021/12/23 02:38:07;;;;;;;;;25.25;23.00;;;;;12.22;43.32;99088.97;6032475;22;102674;-59
2021/12/23 02:40:39;;;;;;;;;22.75;22.00;;;;;12.22;44.08;99086.25;5896087;22;104020;-58
2021/12/23 02:43:27;;;;;;;;;25.75;24.00;;;;;12.21;43.50;99086.44;6007505;22;103823;-59
2021/12/23 02:45:56;;;;;;;;;24.50;21.75;;;;;12.21;43.80;99081.00;6021470;22;102513;-59
2021/12/23 02:48:30;;;;;;;;;28.00;24.00;;;;;12.21;43.49;99079.13;5947849;22;102101;-58
2021/12/23 02:50:58;;;;;;;;;25.25;22.75;;;;;12.20;43.81;99074.78;5969388;22;103740;-58
2021/12/23 02:53:25;;;;;;;;;23.75;21.00;;;;;12.20;44.04;99069.34;6040200;22;102360;-58
2021/12/23 02:55:56;;;;;;;;;32.25;23.50;;;;;12.19;43.78;99066.84;6023557;22;104633;-58
2021/12/23 02:58:23;;;;;;;;;28.50;23.25;;;;;12.19;43.59;99064.13;6013586;22;102242;-59
2021/12/23 03:00:51;;;;;;;;;24.25;19.75;;;;;12.20;43.71;99063.09;6048128;22;103974;-58
2021/12/23 03:03:19;;;;;;;;;28.25;21.75;;;;;12.18;43.75;99057.03;6069508;22;104008;-58
2021/12/23 03:05:50;;;;;;;;;31.50;26.50;;;;;12.21;43.80;99059.31;6066600;22;102501;-58
2021/12/23 03:08:37;;;;;;;;;28.00;24.50;;;;;12.22;43.72;99053.72;6111911;22;102349;-58
2021/12/23 03:11:04;;;;;;;;;31.50;27.75;;;;;12.26;43.44;99056.84;6090460;22;108776;-59
2021/12/23 03:13:32;;;;;;;;;27.50;23.25;;;;;12.30;43.27;99053.53;6122896;22;109519;-58
2021/12/23 03:15:59;;;;;;;;;24.75;22.00;;;;;12.35;43.06;99047.50;6066263;22;102597;-58
2021/12/23 03:18:26;;;;;;;;;25.50;23.25;;;;;12.37;42.96;99042.75;6051964;22;102459;-58
2021/12/23 03:20:54;;;;;;;;;29.00;24.00;;;;;12.39;42.99;99044.19;6114638;22;103904;-59
2021/12/23 03:23:21;;;;;;;;;25.00;24.75;;;;;12.42;43.38;99043.81;6122869;22;102354;-58
2021/12/23 03:25:48;;;;;;;;;26.75;24.25;;;;;12.45;43.11;99037.13;6075914;22;103944;-58
2021/12/23 03:28:15;;;;;;;;;28.25;24.50;;;;;12.47;43.48;99035.06;6077710;22;102484;-58
2021/12/23 03:30:42;;;;;;;;;27.00;23.00;;;;;12.48;42.92;99032.13;6069695;22;103984;-58
2021/12/23 03:33:09;;;;;;;;;28.75;24.00;;;;;12.51;42.77;99018.19;6070601;22;102194;-58
2021/12/23 03:35:36;;;;;;;;;33.00;26.50;;;;;12.50;43.27;99024.66;6112172;22;102708;-59
2021/12/23 03:38:04;;;;;;;;;25.00;23.50;;;;;12.54;43.44;99014.22;6126905;22;102470;-58
2021/12/23 03:40:31;;;;;;;;;26.25;22.25;;;;;12.56;42.50;99016.75;6108759;22;103962;-58
2021/12/23 03:42:58;;;;;;;;;28.50;25.00;;;;;12.59;42.53;99021.75;6088185;22;103288;-58
2021/12/23 03:45:25;;;;;;;;;24.25;21.25;;;;;12.59;42.87;99002.75;6090382;22;102389;-58
2021/12/23 03:47:52;;;;;;;;;30.00;26.50;;;;;12.64;42.66;99008.41;6101681;22;102524;-58
2021/12/23 03:50:20;;;;;;;;;26.50;20.75;;;;;12.66;42.26;99006.31;6102661;22;104429;-58
2021/12/23 03:52:47;;;;;;;;;26.25;22.50;;;;;12.67;42.73;99008.00;6114622;22;102321;-58
2021/12/23 03:55:15;;;;;;;;;24.00;20.00;;;;;12.67;43.13;99008.84;6125271;22;102326;-58
2021/12/23 03:57:42;;;;;;;;;27.75;24.50;;;;;12.67;42.93;99014.25;6114274;22;102347;-58
2021/12/23 04:00:12;;;;;;;;;22.00;20.75;;;;;12.66;42.52;99007.16;6108671;22;104100;-58
2021/12/23 04:02:39;;;;;;;;;29.50;25.50;;;;;12.67;43.20;98999.84;6132419;22;102397;-59
2021/12/23 04:05:06;;;;;;;;;33.50;28.75;;;;;12.67;42.85;99002.56;6125635;22;102529;-59
2021/12/23 04:07:34;;;;;;;;;24.75;24.25;;;;;12.66;42.17;98999.00;6133062;22;102233;-58
2021/12/23 04:10:02;;;;;;;;;29.00;26.25;;;;;12.64;42.25;98998.41;6116291;22;109191;-58
2021/12/23 04:12:29;;;;;;;;;31.00;26.25;;;;;12.63;42.47;98996.72;6126396;22;102495;-58
2021/12/23 04:14:56;;;;;;;;;32.25;26.50;;;;;12.62;43.15;98991.50;6047383;22;102520;-59
2021/12/23 04:17:23;;;;;;;;;31.25;21.00;;;;;12.61;43.10;98987.13;6130677;22;102595;-58
2021/12/23 04:19:51;;;;;;;;;31.75;27.00;;;;;12.60;42.20;98982.75;6123436;22;103954;-58
2021/12/23 04:22:18;;;;;;;;;30.75;24.75;;;;;12.58;42.50;98979.38;6083122;22;109785;-58
2021/12/23 04:24:45;;;;;;;;;30.50;27.00;;;;;12.57;43.13;98972.28;6104807;22;102248;-58
2021/12/23 04:27:12;;;;;;;;;27.50;23.50;;;;;12.60;42.61;98974.59;6106047;22;102656;-59
2021/12/23 04:29:39;;;;;;;;;26.25;22.25;;;;;12.60;42.83;98977.31;6111257;22;103629;-59
2021/12/23 04:32:06;;;;;;;;;29.75;26.00;;;;;12.59;43.32;98971.03;6099572;22;102280;-59
2021/12/23 04:34:33;;;;;;;;;27.50;25.50;;;;;12.58;43.11;98973.94;6057938;22;102768;-58
2021/12/23 04:37:00;;;;;;;;;23.00;20.75;;;;;12.60;42.35;98964.59;6094082;22;102869;-59
2021/12/23 04:39:27;;;;;;;;;30.00;24.75;;;;;12.58;42.10;98961.22;6126525;22;104110;-58
2021/12/23 04:41:54;;;;;;;;;25.50;24.75;;;;;12.56;42.61;98952.47;6097245;22;104256;-58
2021/12/23 04:44:21;;;;;;;;;31.25;24.25;;;;;12.58;42.76;98954.97;6105584;22;102992;-58
2021/12/23 04:46:48;;;;;;;;;27.50;22.50;;;;;12.59;42.45;98954.78;6098702;22;102638;-59
2021/12/23 04:49:15;;;;;;;;;26.75;24.50;;;;;12.59;42.40;98951.22;6094026;22;104328;-58
2021/12/23 04:51:42;;;;;;;;;28.50;24.25;;;;;12.60;42.15;98947.47;6085754;22;102385;-59
2021/12/23 04:54:09;;;;;;;;;27.00;23.75;;;;;12.55;43.02;98941.81;6114149;22;102171;-58
2021/12/23 04:56:36;;;;;;;;;30.50;25.75;;;;;12.55;42.81;98933.69;6127218;22;102519;-59
2021/12/23 04:59:03;;;;;;;;;27.50;23.50;;;;;12.55;43.42;98936.41;6115881;22;104075;-59
2021/12/23 05:01:32;;;;;;;;;27.75;23.25;;;;;12.52;43.25;98941.19;6120111;22;102560;-59
2021/12/23 05:04:00;;;;;;;;;22.00;19.75;;;;;12.52;43.00;98932.19;6103913;22;102160;-59
2021/12/23 05:06:27;;;;;;;;;24.75;20.25;;;;;12.52;42.94;98935.75;6143665;22;102180;-58
2021/12/23 05:08:54;;;;;;;;;27.25;24.75;;;;;12.51;42.58;98933.25;6120333;22;103503;-58
2021/12/23 05:11:21;;;;;;;;;37.00;25.75;;;;;12.47;42.26;98927.38;6119570;22;102965;-58
2021/12/23 05:13:48;;;;;;;;;24.75;23.00;;;;;12.46;43.19;98920.31;6131818;22;102482;-59
2021/12/23 05:16:16;;;;;;;;;27.00;23.75;;;;;12.44;42.44;98918.84;6035044;22;104197;-58
2021/12/23 05:18:44;;;;;;;;;21.75;17.00;;;;;12.39;42.49;98916.75;6113574;22;110445;-58
2021/12/23 05:21:11;;;;;;;;;25.75;21.50;;;;;12.35;42.33;98904.63;6125882;22;102563;-59
2021/12/23 05:23:39;;;;;;;;;26.50;23.00;;;;;12.35;43.03;98906.50;6111784;22;102807;-58
2021/12/23 05:26:07;;;;;;;;;31.00;22.00;;;;;12.33;43.32;98909.44;6114422;22;102433;-58
2021/12/23 05:28:35;;;;;;;;;30.00;23.50;;;;;12.32;42.59;98905.06;6115025;22;104004;-58
2021/12/23 05:31:02;;;;;;;;;23.00;20.75;;;;;12.29;43.36;98897.31;6123393;22;102629;-58
2021/12/23 05:33:30;;;;;;;;;23.50;21.75;;;;;12.29;42.64;98894.59;6129688;22;102526;-58
2021/12/23 05:35:57;;;;;;;;;25.25;21.75;;;;;12.32;43.09;98891.50;6118338;22;102159;-59
2021/12/23 05:38:24;;;;;;;;;26.00;23.25;;;;;12.29;42.54;98900.03;6101290;22;103924;-58
2021/12/23 05:40:51;;;;;;;;;25.25;22.50;;;;;12.27;43.48;98888.56;6130601;22;105627;-58
2021/12/23 05:43:18;;;;;;;;;26.75;24.25;;;;;12.26;43.26;98886.03;6113888;22;102412;-58
2021/12/23 05:45:45;;;;;;;;;25.50;22.00;;;;;12.28;43.26;98895.66;6091912;22;102565;-59
2021/12/23 05:48:12;;;;;;;;;26.25;20.25;;;;;12.28;43.33;98895.66;6116457;22;103682;-58
2021/12/23 05:50:39;;;;;;;;;23.25;20.75;;;;;12.28;42.44;98881.25;6131924;22;102408;-58
2021/12/23 05:53:06;;;;;;;;;28.25;24.25;;;;;12.27;42.19;98891.28;6085423;22;102399;-59
2021/12/23 05:55:33;;;;;;;;;24.75;23.00;;;;;12.31;42.85;98886.25;6126956;22;105593;-58
2021/12/23 05:58:00;;;;;;;;;22.00;20.50;;;;;12.34;42.42;98894.81;6129223;22;104408;-58
2021/12/23 06:00:29;;;;;;;;;29.00;26.75;;;;;12.37;42.07;98893.59;6136439;22;102668;-58
2021/12/23 06:02:57;;;;;;;;;26.50;20.50;;;;;12.41;42.68;98886.72;6099669;22;101845;-58
2021/12/23 06:05:24;;;;;;;;;29.75;25.50;;;;;12.42;41.97;98885.69;6093885;22;104879;-58
2021/12/23 06:07:51;;;;;;;;;28.75;24.00;;;;;12.43;42.51;98885.44;6098398;22;108776;-59
2021/12/23 06:10:18;;;;;;;;;21.25;20.25;;;;;12.46;42.57;98881.50;6110507;22;103522;-58
2021/12/23 06:12:46;;;;;;;;;29.25;23.25;;;;;12.49;42.28;98875.66;6093406;22;102072;-58
2021/12/23 06:15:13;;;;;;;;;27.50;22.00;;;;;12.48;42.41;98858.56;6129106;22;102613;-59
2021/12/23 06:17:40;;;;;;;;;24.00;21.75;;;;;12.54;42.36;98862.31;6076673;22;104282;-58
2021/12/23 06:20:08;;;;;;;;;24.25;20.00;;;;;12.55;42.11;98849.59;6124304;22;102537;-58
2021/12/23 06:22:36;;;;;;;;;29.25;27.00;;;;;12.54;42.23;98856.91;6106320;22;102572;-58
2021/12/23 06:25:05;;;;;;;;;29.75;23.75;;;;;12.56;42.39;98843.97;6112044;22;102414;-58
2021/12/23 06:27:32;;;;;;;;;25.75;22.50;;;;;12.60;42.12;98850.66;6140138;22;104188;-59
2021/12/23 06:29:59;;;;;;;;;29.75;23.75;;;;;12.62;42.42;98845.00;6134102;22;102125;-58
2021/12/23 06:32:26;;;;;;;;;27.25;24.25;;;;;12.64;41.55;98851.91;6128131;22;102551;-59
2021/12/23 06:34:53;;;;;;;;;23.75;21.25;;;;;12.65;42.43;98853.59;6081976;22;102334;-58
2021/12/23 06:37:20;;;;;;;;;25.25;23.00;;;;;12.67;41.67;98851.47;6103224;22;104266;-59
2021/12/23 06:39:47;;;;;;;;;25.25;23.00;;;;;12.68;41.98;98836.03;6094157;22;102288;-58
2021/12/23 06:42:14;;;;;;;;;23.50;22.50;;;;;12.68;41.50;98836.88;6106394;22;104271;-58
2021/12/23 06:44:41;;;;;;;;;27.75;23.50;;;;;12.71;41.58;98843.75;6108531;22;104272;-59
2021/12/23 06:47:08;;;;;;;;;25.75;24.00;;;;;12.71;41.92;98833.72;6118056;22;103384;-59
2021/12/23 06:49:35;;;;;;;;;32.75;24.50;;;;;12.72;42.06;98840.84;6122053;22;102533;-59
2021/12/23 06:52:02;;;;;;;;;26.00;21.75;;;;;12.75;41.65;98842.28;6129382;22;102381;-58
2021/12/23 06:54:29;;;;;;;;;26.75;22.50;;;;;12.75;41.64;98850.44;6128901;22;102340;-58
2021/12/23 06:56:56;;;;;;;;;27.25;22.25;;;;;12.77;42.02;98845.63;6142353;22;108949;-58
2021/12/23 06:59:24;;;;;;;;;25.75;22.50;;;;;12.78;42.52;98836.47;6110202;22;102254;-59
2021/12/23 07:01:51;;;;;;;;;24.50;22.75;;;;;12.82;41.33;98840.41;6086419;22;102651;-58
2021/12/23 07:04:21;;;;;;;;;26.25;21.00;;;;;12.82;41.49;98835.84;6080743;22;102076;-59
2021/12/23 07:06:59;;;;;;;;;19.00;19.00;;;;;12.85;42.23;98831.84;6130084;22;103950;-58
2021/12/23 07:09:26;;;;;;;;;23.25;22.00;;;;;12.85;42.16;98826.44;6074949;22;102744;-58
2021/12/23 07:11:53;;;;;;;;;25.25;23.50;;;;;12.86;41.60;98823.50;6084565;22;102660;-59
2021/12/23 07:14:20;;;;;;;;;28.00;23.75;;;;;12.88;41.96;98826.84;6133310;22;102525;-58
2021/12/23 07:16:47;;;;;;;;;24.25;20.25;;;;;12.87;41.26;98829.78;6131510;22;103942;-58
2021/12/23 07:19:14;;;;;;;;;30.00;23.75;;;;;12.89;41.51;98831.22;6105686;22;102381;-59
2021/12/23 07:21:41;;;;;;;;;26.50;24.00;;;;;12.89;41.43;98816.81;6087759;22;102645;-59
2021/12/23 07:24:08;;;;;;;;;28.00;23.00;;;;;12.92;41.62;98816.41;6134564;22;102271;-58
2021/12/23 07:26:35;;;;;;;;;26.50;24.00;;;;;12.93;41.92;98812.63;6122045;22;103994;-58
2021/12/23 07:29:02;;;;;;;;;26.50;24.25;;;;;12.95;41.96;98818.69;6094992;22;102231;-59
2021/12/23 07:31:29;;;;;;;;;25.00;23.00;;;;;12.93;42.12;98807.19;6113895;22;102208;-59
2021/12/23 07:33:57;;;;;;;;;27.50;23.75;;;;;12.95;41.96;98796.97;6103939;22;102365;-58
2021/12/23 07:36:24;;;;;;;;;29.50;26.75;;;;;12.97;41.66;98808.44;6091746;22;105275;-58
2021/12/23 07:38:51;;;;;;;;;27.50;20.00;;;;;12.98;41.95;98800.09;6137142;22;102581;-59
2021/12/23 07:41:18;;;;;;;;;26.75;23.75;;;;;12.98;41.33;98805.53;6134198;22;103114;-59
2021/12/23 07:44:06;;;;;;;;;30.25;24.75;;;;;13.01;42.02;98798.88;6126936;22;102397;-59
2021/12/23 07:46:35;;;;;;;;;27.25;23.50;;;;;13.02;42.27;98803.22;6110660;22;103975;-59
2021/12/23 07:49:02;;;;;;;;;28.25;22.50;;;;;13.04;41.38;98798.44;6130711;22;102454;-58
2021/12/23 07:51:30;;;;;;;;;25.00;20.75;;;;;13.06;41.37;98793.59;6138667;22;104846;-59
2021/12/23 07:53:57;;;;;;;;;24.75;23.75;;;;;13.08;41.99;98804.25;6110147;22;102592;-58
2021/12/23 07:56:24;;;;;;;;;29.25;23.75;;;;;13.07;41.61;98803.44;6120131;22;103423;-58
2021/12/23 07:58:52;;;;;;;;;27.75;25.25;;;;;13.09;42.02;98804.06;6035438;22;102403;-58
2021/12/23 08:01:19;;;;;;;;;29.75;25.75;;;;;13.10;42.24;98803.03;6137105;22;102031;-58
2021/12/23 08:03:46;;;;;;;;;28.75;25.75;;;;;13.10;41.77;98794.88;6133419;22;102101;-59
2021/12/23 08:06:15;;;;;;;;;29.75;24.50;;;;;13.12;42.21;98792.78;6099376;22;109071;-59
2021/12/23 08:08:42;;;;;;;;;33.50;28.75;;;;;13.13;41.42;98789.03;6088285;22;102493;-56
2021/12/23 08:11:09;;;;;;;;;27.00;21.75;;;;;13.13;42.14;98786.31;6075624;22;102410;-59
2021/12/23 08:13:36;;;;;;;;;27.25;24.00;;;;;13.12;41.26;98781.94;6107380;22;106261;-59
2021/12/23 08:16:07;;;;;;;;;24.25;22.50;;;;;13.13;41.99;98783.63;6136187;22;104004;-59
2021/12/23 08:18:34;;;;;;;;;31.50;25.75;;;;;13.15;41.80;98786.94;6070541;22;101990;-58
2021/12/23 08:21:02;;;;;;;;;29.25;23.25;;;;;13.15;41.33;98773.34;6126319;22;101936;-58
2021/12/23 08:23:29;;;;;;;;;29.50;24.25;;;;;13.15;41.63;98762.50;6137184;22;102669;-59
2021/12/23 08:25:59;;;;;;;;;22.75;20.00;;;;;13.16;41.73;98766.03;6102096;22;103960;-58
2021/12/23 08:28:26;;;;;;;;;26.00;23.25;;;;;13.17;41.72;98760.41;6101502;22;102339;-58
2021/12/23 08:30:53;;;;;;;;;27.50;24.25;;;;;13.20;42.03;98765.41;6113824;22;102333;-58
2021/12/23 08:33:21;;;;;;;;;27.00;24.25;;;;;13.21;41.09;98764.38;6131614;22;102364;-59
2021/12/23 08:35:48;;;;;;;;;36.25;25.50;;;;;13.24;41.96;98754.94;6094986;22;109878;-59
2021/12/23 08:38:15;;;;;;;;;24.50;21.75;;;;;13.26;41.61;98748.28;6104564;22;102396;-58
2021/12/23 08:40:42;;;;;;;;;23.50;20.50;;;;;13.26;41.04;98745.56;6142813;22;102197;-59
2021/12/23 08:43:09;;;;;;;;;25.50;21.25;;;;;13.26;40.97;98737.41;6121530;22;102028;-58
2021/12/23 08:45:37;;;;;;;;;25.50;21.25;;;;;13.28;41.27;98735.28;6105961;22;102777;-59
2021/12/23 08:48:04;;;;;;;;;28.25;25.00;;;;;13.28;41.06;98734.50;6122459;22;102498;-59
2021/12/23 08:50:32;;;;;;;;;25.75;23.50;;;;;13.28;42.04;98732.56;6116049;22;102653;-58
2021/12/23 08:52:59;;;;;;;;;23.25;20.25;;;;;13.30;41.19;98737.81;6076747;22;103042;-59
2021/12/23 08:55:27;;;;;;;;;26.50;21.50;;;;;13.31;41.66;98728.63;6108335;22;103649;-58
2021/12/23 08:57:55;;;;;;;;;30.50;24.50;;;;;13.32;41.30;98733.84;6093878;22;104364;-59
2021/12/23 09:00:22;;;;;;;;;22.50;21.25;;;;;13.31;41.19;98726.75;6066155;22;102348;-59
2021/12/23 09:02:49;;;;;;;;;23.50;22.00;;;;;13.30;40.93;98725.06;6146453;22;102507;-59
2021/12/23 09:05:19;;;;;;;;;28.75;23.25;;;;;13.32;41.40;98717.56;6108809;22;103940;-59
2021/12/23 09:07:47;;;;;;;;;23.50;17.25;;;;;13.32;41.87;98720.25;6137157;22;110662;-59
2021/12/23 09:10:14;;;;;;;;;22.75;20.00;;;;;13.34;41.67;98701.03;6079213;22;104427;-59
2021/12/23 09:12:42;;;;;;;;;24.25;21.00;;;;;13.35;41.57;98698.09;6128474;22;102066;-59
2021/12/23 09:15:09;;;;;;;;;22.50;19.00;;;;;13.37;41.05;98684.31;6147530;22;104015;-58
2021/12/23 09:17:37;;;;;;;;;23.25;19.25;;;;;13.37;40.95;98684.31;6109416;22;102409;-58
2021/12/23 09:20:05;;;;;;;;;24.50;21.50;;;;;13.38;41.33;98678.66;6094827;22;104356;-59
2021/12/23 09:22:32;;;;;;;;;26.75;22.75;;;;;13.42;41.00;98660.03;6101625;22;102427;-59
2021/12/23 09:25:06;;;;;;;;;28.00;21.75;;;;;13.45;41.01;98656.06;6096900;22;103973;-59
2021/12/23 09:27:41;;;;;;;;;25.50;19.75;;;;;13.43;41.23;98644.56;6085391;22;102243;-59
2021/12/23 09:32:55;;;;;;;;;26.00;21.00;;;;;13.45;41.82;98654.19;6131977;22;102543;-58
2021/12/23 09:35:42;;;;;;;;;25.50;21.50;;;;;13.47;41.17;98646.63;6123689;22;109815;-59
2021/12/23 09:38:09;;;;;;;;;20.25;18.75;;;;;13.46;40.98;98644.97;6063984;22;102531;-58
2021/12/23 09:40:37;;;;;;;;;24.00;21.75;;;;;13.48;41.83;98637.44;6132947;22;103391;-59
2021/12/23 09:43:09;;;;;;;;;25.25;19.50;;;;;13.50;41.10;98639.94;6120622;22;102320;-59
2021/12/23 09:45:37;;;;;;;;;29.00;24.00;;;;;13.50;41.06;98634.50;6126707;22;104017;-58
2021/12/23 09:48:04;;;;;;;;;25.00;19.50;;;;;13.51;41.54;98625.31;6078445;22;103438;-59
2021/12/23 09:50:34;;;;;;;;;22.00;20.00;;;;;13.50;41.78;98620.91;6135043;22;102075;-59
2021/12/23 09:53:02;;;;;;;;;22.00;20.50;;;;;13.51;41.68;98614.44;6121136;22;102123;-59
2021/12/23 09:55:30;;;;;;;;;17.75;14.25;;;;;13.51;41.00;98611.72;6059034;22;109175;-58
2021/12/23 09:57:58;;;;;;;;;23.50;19.50;;;;;13.53;41.05;98609.59;6086639;22;102470;-59
2021/12/23 10:00:28;;;;;;;;;25.25;18.75;;;;;13.53;41.43;98598.75;6126286;22;101883;-58
2021/12/23 10:02:55;;;;;;;;;21.75;20.25;;;;;13.55;41.02;98596.66;6104824;22;102252;-59
2021/12/23 10:05:25;;;;;;;;;22.00;17.75;;;;;13.58;41.43;98588.06;6110734;22;104630;-58
2021/12/23 10:07:54;;;;;;;;;21.50;19.75;;;;;13.57;41.98;98589.09;6104381;22;102261;-59
2021/12/23 10:10:29;;;;;;;;;24.50;23.00;;;;;13.57;41.27;98576.34;6080698;22;104078;-58
2021/12/23 10:26:55;;;;;;;;;24.50;20.75;;;;;13.60;41.77;98577.81;6118337;22;102882;-59
2021/12/23 10:30:43;;;;;;;;;23.00;18.75;;;;;13.67;41.16;98532.38;6124644;22;104278;-59
2021/12/23 10:38:37;;;;;;;;;21.00;18.75;;;;;13.68;40.83;98509.59;6143742;22;108611;-59
2021/12/23 10:41:06;;;;;;;;;21.00;19.00;;;;;13.69;41.60;98497.66;6130498;22;102332;-58
2021/12/23 10:43:55;;;;;;;;;26.50;18.25;;;;;13.70;41.62;98489.28;6114253;22;102189;-59
2021/12/23 10:46:25;;;;;;;;;24.50;15.75;;;;;13.68;41.68;98491.41;6071929;22;102344;-59
2021/12/23 10:52:36;;;;;;;;;21.25;17.50;;;;;13.73;40.95;98464.38;6121618;22;102482;-58
2021/12/23 10:58:02;;;;;;;;;17.50;16.75;;;;;13.74;41.04;98447.03;6132736;22;102424;-58
2021/12/23 11:00:31;;;;;;;;;21.25;18.50;;;;;13.75;41.67;98442.41;6111152;22;108640;-58
2021/12/23 11:06:14;;;;;;;;;20.00;15.75;;;;;13.77;41.46;98437.59;6118566;22;102531;-59
2021/12/23 11:09:31;;;;;;;;;21.75;18.00;;;;;13.77;41.62;98426.75;6109728;22;104556;-58
2021/12/23 11:28:41;;;;;;;;;19.00;17.00;;;;;13.80;41.65;98391.78;6088354;22;109059;-59
2021/12/23 11:41:59;;;;;;;;;18.00;15.50;;;;;13.84;41.07;98354.09;6134516;22;102268;-59
2021/12/23 11:44:30;;;;;;;;;19.00;14.50;;;;;13.86;40.94;98354.72;6114593;22;108379;-58
2021/12/23 11:47:02;;;;;;;;;19.50;17.00;;;;;13.87;41.10;98358.28;6109024;22;102787;-59
2021/12/23 11:49:29;;;;;;;;;18.25;15.25;;;;;13.87;41.63;98352.84;6111760;22;102353;-59
2021/12/23 11:51:56;;;;;;;;;15.50;13.25;;;;;13.88;41.47;98351.75;6128463;22;102405;-59
2021/12/23 11:54:30;;;;;;;;;17.25;13.75;;;;;13.89;40.89;98356.13;6140933;22;104011;-59
2021/12/23 11:57:08;;;;;;;;;16.00;13.50;;;;;13.89;41.68;98343.38;6064390;22;105898;-59
2021/12/23 11:59:36;;;;;;;;;16.50;13.50;;;;;13.89;41.10;98335.22;6047578;22;102636;-59
2021/12/23 12:02:15;;;;;;;;;18.00;15.50;;;;;13.91;41.06;98327.69;6122923;22;102408;-58
2021/12/23 12:04:42;;;;;;;;;20.50;14.75;;;;;13.92;40.87;98328.50;6133140;22;103986;-59
2021/12/23 12:07:20;;;;;;;;;17.00;14.00;;;;;13.91;41.50;98315.97;6127250;22;102177;-59
2021/12/23 12:09:55;;;;;;;;;16.50;14.00;;;;;13.90;41.48;98315.16;6122784;22;102648;-58
2021/12/23 12:12:22;;;;;;;;;17.75;13.75;;;;;13.91;41.04;98299.66;6111309;22;102618;-58
2021/12/23 12:14:51;;;;;;;;;14.25;12.75;;;;;13.92;41.01;98302.13;6132317;22;103764;-59
2021/12/23 12:17:27;;;;;;;;;14.50;12.50;;;;;13.92;41.34;98290.44;6113690;22;102362;-59
2021/12/23 12:19:57;;;;;;;;;16.75;14.00;;;;;13.93;41.59;98287.50;6134690;22;102219;-59
2021/12/23 12:22:57;;;;;;;;;13.25;12.75;;;;;13.95;41.06;98279.13;6128624;22;102415;-59